sensor_id;sensor_type;location;lat;lon;timestamp;temperature;humidity
32753;DHT22;19121;52.428;10.816;2023-02-01T00:00:08;18.50;43.40
32753;DHT22;19121;52.428;10.816;2023-02-01T00:02:34;18.50;43.40
32753;DHT22;19121;52.428;10.816;2023-02-01T00:05:01;18.50;43.40
32753;DHT22;19121;52.428;10.816;2023-02-01T00:07:26;18.50;43.40
32753;DHT22;19121;52.428;10.816;2023-02-01T00:09:52;18.50;43.40
32753;DHT22;19121;52.428;10.816;2023-02-01T00:12:17;18.50;43.40
32753;DHT22;19121;52.428;10.816;2023-02-01T00:14:42;18.50;43.40
32753;DHT22;19121;52.428;10.816;2023-02-01T00:17:08;18.50;43.40
32753;DHT22;19121;52.428;10.816;2023-02-01T00:19:34;18.50;43.40
32753;DHT22;19121;52.428;10.816;2023-02-01T00:21:59;18.50;43.40
32753;DHT22;19121;52.428;10.816;2023-02-01T00:24:25;18.50;43.40
32753;DHT22;19121;52.428;10.816;2023-02-01T00:26:50;18.40;43.30
32753;DHT22;19121;52.428;10.816;2023-02-01T00:29:17;18.40;43.40
32753;DHT22;19121;52.428;10.816;2023-02-01T00:31:43;18.40;43.30
32753;DHT22;19121;52.428;10.816;2023-02-01T00:34:10;18.40;43.30
32753;DHT22;19121;52.428;10.816;2023-02-01T00:36:36;18.40;43.30
32753;DHT22;19121;52.428;10.816;2023-02-01T00:39:02;18.40;43.30
32753;DHT22;19121;52.428;10.816;2023-02-01T00:41:27;18.40;43.40
32753;DHT22;19121;52.428;10.816;2023-02-01T00:43:53;18.40;43.30
32753;DHT22;19121;52.428;10.816;2023-02-01T00:46:18;18.40;43.30
32753;DHT22;19121;52.428;10.816;2023-02-01T00:48:44;18.40;43.30
32753;DHT22;19121;52.428;10.816;2023-02-01T00:51:11;18.40;43.30
32753;DHT22;19121;52.428;10.816;2023-02-01T00:53:37;18.40;43.30
32753;DHT22;19121;52.428;10.816;2023-02-01T00:56:03;18.40;43.30
32753;DHT22;19121;52.428;10.816;2023-02-01T00:58:29;18.40;43.30
32753;DHT22;19121;52.428;10.816;2023-02-01T01:01:04;18.40;43.30
32753;DHT22;19121;52.428;10.816;2023-02-01T01:03:30;18.40;43.30
32753;DHT22;19121;52.428;10.816;2023-02-01T01:05:58;18.40;43.30
32753;DHT22;19121;52.428;10.816;2023-02-01T01:08:24;18.40;43.30
32753;DHT22;19121;52.428;10.816;2023-02-01T01:10:50;18.40;43.30
32753;DHT22;19121;52.428;10.816;2023-02-01T01:13:15;18.30;43.20
32753;DHT22;19121;52.428;10.816;2023-02-01T01:15:41;18.40;43.30
32753;DHT22;19121;52.428;10.816;2023-02-01T01:18:07;18.30;43.20
32753;DHT22;19121;52.428;10.816;2023-02-01T01:20:36;18.30;43.20
32753;DHT22;19121;52.428;10.816;2023-02-01T01:23:02;18.30;43.20
32753;DHT22;19121;52.428;10.816;2023-02-01T01:25:28;18.40;43.20
32753;DHT22;19121;52.428;10.816;2023-02-01T01:27:53;18.30;43.20
32753;DHT22;19121;52.428;10.816;2023-02-01T01:30:19;18.30;43.20
32753;DHT22;19121;52.428;10.816;2023-02-01T01:32:44;18.40;43.20
32753;DHT22;19121;52.428;10.816;2023-02-01T01:35:10;18.30;43.20
32753;DHT22;19121;52.428;10.816;2023-02-01T01:37:36;18.30;43.20
32753;DHT22;19121;52.428;10.816;2023-02-01T01:40:02;18.30;43.20
32753;DHT22;19121;52.428;10.816;2023-02-01T01:42:27;18.30;43.20
32753;DHT22;19121;52.428;10.816;2023-02-01T01:44:55;18.30;43.20
32753;DHT22;19121;52.428;10.816;2023-02-01T01:47:21;18.30;43.20
32753;DHT22;19121;52.428;10.816;2023-02-01T01:49:46;18.30;43.20
32753;DHT22;19121;52.428;10.816;2023-02-01T01:52:12;18.30;43.20
32753;DHT22;19121;52.428;10.816;2023-02-01T01:54:38;18.30;43.20
32753;DHT22;19121;52.428;10.816;2023-02-01T01:57:06;18.30;43.20
32753;DHT22;19121;52.428;10.816;2023-02-01T01:59:34;18.30;43.20
32753;DHT22;19121;52.428;10.816;2023-02-01T02:02:00;18.30;43.20
32753;DHT22;19121;52.428;10.816;2023-02-01T02:04:25;18.30;43.20
32753;DHT22;19121;52.428;10.816;2023-02-01T02:09:35;18.30;43.20
32753;DHT22;19121;52.428;10.816;2023-02-01T02:12:00;18.20;43.10
32753;DHT22;19121;52.428;10.816;2023-02-01T02:14:26;18.20;43.10
32753;DHT22;19121;52.428;10.816;2023-02-01T02:19:22;18.20;43.10
32753;DHT22;19121;52.428;10.816;2023-02-01T02:21:52;18.30;43.20
32753;DHT22;19121;52.428;10.816;2023-02-01T02:27:07;18.20;43.10
32753;DHT22;19121;52.428;10.816;2023-02-01T02:29:59;18.20;43.10
32753;DHT22;19121;52.428;10.816;2023-02-01T02:35:02;18.20;43.10
32753;DHT22;19121;52.428;10.816;2023-02-01T02:37:36;18.30;43.20
32753;DHT22;19121;52.428;10.816;2023-02-01T02:42:38;18.20;43.10
32753;DHT22;19121;52.428;10.816;2023-02-01T02:45:25;18.20;43.10
32753;DHT22;19121;52.428;10.816;2023-02-01T02:53:57;18.20;43.70
32753;DHT22;19121;52.428;10.816;2023-02-01T02:56:43;18.20;43.10
32753;DHT22;19121;52.428;10.816;2023-02-01T02:59:28;18.20;43.10
32753;DHT22;19121;52.428;10.816;2023-02-01T03:02:13;18.20;43.10
32753;DHT22;19121;52.428;10.816;2023-02-01T03:04:58;18.20;43.10
32753;DHT22;19121;52.428;10.816;2023-02-01T03:10:09;18.20;43.10
32753;DHT22;19121;52.428;10.816;2023-02-01T03:12:36;18.20;43.10
32753;DHT22;19121;52.428;10.816;2023-02-01T03:15:21;18.20;43.10
32753;DHT22;19121;52.428;10.816;2023-02-01T03:17:49;18.20;43.10
32753;DHT22;19121;52.428;10.816;2023-02-01T03:20:15;18.20;43.10
32753;DHT22;19121;52.428;10.816;2023-02-01T03:22:41;18.20;43.10
32753;DHT22;19121;52.428;10.816;2023-02-01T03:25:12;18.20;43.10
32753;DHT22;19121;52.428;10.816;2023-02-01T03:27:59;18.20;43.10
32753;DHT22;19121;52.428;10.816;2023-02-01T03:30:28;18.20;43.10
32753;DHT22;19121;52.428;10.816;2023-02-01T03:32:55;18.20;43.10
32753;DHT22;19121;52.428;10.816;2023-02-01T03:35:29;18.20;43.00
32753;DHT22;19121;52.428;10.816;2023-02-01T03:37:56;18.20;43.00
32753;DHT22;19121;52.428;10.816;2023-02-01T03:40:24;18.20;43.10
32753;DHT22;19121;52.428;10.816;2023-02-01T03:42:51;18.20;43.00
32753;DHT22;19121;52.428;10.816;2023-02-01T03:45:23;18.20;43.00
32753;DHT22;19121;52.428;10.816;2023-02-01T03:47:52;18.20;43.10
32753;DHT22;19121;52.428;10.816;2023-02-01T03:50:20;18.20;43.70
32753;DHT22;19121;52.428;10.816;2023-02-01T03:52:52;18.20;43.10
32753;DHT22;19121;52.428;10.816;2023-02-01T03:55:19;18.20;43.10
32753;DHT22;19121;52.428;10.816;2023-02-01T03:57:46;18.20;43.00
32753;DHT22;19121;52.428;10.816;2023-02-01T04:00:17;18.20;43.10
32753;DHT22;19121;52.428;10.816;2023-02-01T04:02:43;18.20;43.00
32753;DHT22;19121;52.428;10.816;2023-02-01T04:05:09;18.20;43.00
32753;DHT22;19121;52.428;10.816;2023-02-01T04:07:34;18.20;43.00
32753;DHT22;19121;52.428;10.816;2023-02-01T04:10:00;18.20;43.00
32753;DHT22;19121;52.428;10.816;2023-02-01T04:12:25;18.20;43.00
32753;DHT22;19121;52.428;10.816;2023-02-01T04:14:50;18.20;43.00
32753;DHT22;19121;52.428;10.816;2023-02-01T04:17:16;18.20;43.00
32753;DHT22;19121;52.428;10.816;2023-02-01T04:19:41;18.20;43.00
32753;DHT22;19121;52.428;10.816;2023-02-01T04:22:07;18.20;43.60
32753;DHT22;19121;52.428;10.816;2023-02-01T04:24:32;18.30;43.00
32753;DHT22;19121;52.428;10.816;2023-02-01T04:26:57;18.20;43.00
32753;DHT22;19121;52.428;10.816;2023-02-01T04:29:23;18.30;43.10
32753;DHT22;19121;52.428;10.816;2023-02-01T04:31:48;18.20;43.00
32753;DHT22;19121;52.428;10.816;2023-02-01T04:34:14;18.30;43.10
32753;DHT22;19121;52.428;10.816;2023-02-01T04:36:40;18.20;42.90
32753;DHT22;19121;52.428;10.816;2023-02-01T04:39:05;18.30;43.10
32753;DHT22;19121;52.428;10.816;2023-02-01T04:41:30;18.20;43.00
32753;DHT22;19121;52.428;10.816;2023-02-01T04:43:56;18.30;43.00
32753;DHT22;19121;52.428;10.816;2023-02-01T04:46:21;18.20;43.00
32753;DHT22;19121;52.428;10.816;2023-02-01T04:48:47;18.30;43.00
32753;DHT22;19121;52.428;10.816;2023-02-01T04:51:12;18.30;43.00
32753;DHT22;19121;52.428;10.816;2023-02-01T04:53:38;18.30;43.00
32753;DHT22;19121;52.428;10.816;2023-02-01T04:56:03;18.30;43.00
32753;DHT22;19121;52.428;10.816;2023-02-01T04:58:29;18.30;43.00
32753;DHT22;19121;52.428;10.816;2023-02-01T05:00:54;18.30;43.00
32753;DHT22;19121;52.428;10.816;2023-02-01T05:03:20;18.30;43.00
32753;DHT22;19121;52.428;10.816;2023-02-01T05:05:47;18.30;43.00
32753;DHT22;19121;52.428;10.816;2023-02-01T05:08:12;18.30;43.00
32753;DHT22;19121;52.428;10.816;2023-02-01T05:10:38;18.30;43.00
32753;DHT22;19121;52.428;10.816;2023-02-01T05:13:03;18.30;43.00
32753;DHT22;19121;52.428;10.816;2023-02-01T05:15:47;18.30;43.00
32753;DHT22;19121;52.428;10.816;2023-02-01T05:18:13;18.30;43.00
32753;DHT22;19121;52.428;10.816;2023-02-01T05:20:38;18.30;43.00
32753;DHT22;19121;52.428;10.816;2023-02-01T05:23:04;18.30;43.00
32753;DHT22;19121;52.428;10.816;2023-02-01T05:25:29;18.30;42.90
32753;DHT22;19121;52.428;10.816;2023-02-01T05:27:55;18.30;43.00
32753;DHT22;19121;52.428;10.816;2023-02-01T05:30:20;18.30;43.00
32753;DHT22;19121;52.428;10.816;2023-02-01T05:32:53;18.30;42.90
32753;DHT22;19121;52.428;10.816;2023-02-01T05:35:18;18.30;42.90
32753;DHT22;19121;52.428;10.816;2023-02-01T05:37:44;18.30;42.90
32753;DHT22;19121;52.428;10.816;2023-02-01T05:40:10;18.30;42.90
32753;DHT22;19121;52.428;10.816;2023-02-01T05:42:38;18.30;43.00
32753;DHT22;19121;52.428;10.816;2023-02-01T05:45:03;18.30;42.90
32753;DHT22;19121;52.428;10.816;2023-02-01T05:47:30;18.30;42.90
32753;DHT22;19121;52.428;10.816;2023-02-01T05:49:56;18.30;42.90
32753;DHT22;19121;52.428;10.816;2023-02-01T05:52:21;18.30;42.90
32753;DHT22;19121;52.428;10.816;2023-02-01T05:54:47;18.30;42.90
32753;DHT22;19121;52.428;10.816;2023-02-01T05:57:12;18.30;42.90
32753;DHT22;19121;52.428;10.816;2023-02-01T05:59:38;18.30;42.90
32753;DHT22;19121;52.428;10.816;2023-02-01T06:02:06;18.30;42.90
32753;DHT22;19121;52.428;10.816;2023-02-01T06:04:32;18.30;42.90
32753;DHT22;19121;52.428;10.816;2023-02-01T06:06:57;18.30;43.50
32753;DHT22;19121;52.428;10.816;2023-02-01T06:09:23;18.30;42.90
32753;DHT22;19121;52.428;10.816;2023-02-01T06:11:48;18.30;42.90
32753;DHT22;19121;52.428;10.816;2023-02-01T06:14:14;18.30;42.90
32753;DHT22;19121;52.428;10.816;2023-02-01T06:16:39;18.30;42.90
32753;DHT22;19121;52.428;10.816;2023-02-01T06:19:04;18.30;42.90
32753;DHT22;19121;52.428;10.816;2023-02-01T06:21:30;18.30;42.90
32753;DHT22;19121;52.428;10.816;2023-02-01T06:23:55;18.30;42.90
32753;DHT22;19121;52.428;10.816;2023-02-01T06:26:22;18.40;42.90
32753;DHT22;19121;52.428;10.816;2023-02-01T06:28:48;18.40;42.90
32753;DHT22;19121;52.428;10.816;2023-02-01T06:31:14;18.30;42.80
32753;DHT22;19121;52.428;10.816;2023-02-01T06:33:39;18.30;42.90
32753;DHT22;19121;52.428;10.816;2023-02-01T06:36:06;18.40;43.00
32753;DHT22;19121;52.428;10.816;2023-02-01T06:38:32;18.30;42.90
32753;DHT22;19121;52.428;10.816;2023-02-01T06:40:59;18.30;43.00
32753;DHT22;19121;52.428;10.816;2023-02-01T06:43:25;18.40;43.10
32753;DHT22;19121;52.428;10.816;2023-02-01T06:45:51;18.40;43.20
32753;DHT22;19121;52.428;10.816;2023-02-01T06:48:17;18.40;43.20
32753;DHT22;19121;52.428;10.816;2023-02-01T06:50:42;18.40;43.20
32753;DHT22;19121;52.428;10.816;2023-02-01T06:53:08;18.40;43.40
32753;DHT22;19121;52.428;10.816;2023-02-01T06:55:33;18.40;43.50
32753;DHT22;19121;52.428;10.816;2023-02-01T06:57:58;18.40;43.90
32753;DHT22;19121;52.428;10.816;2023-02-01T07:00:24;18.50;44.40
32753;DHT22;19121;52.428;10.816;2023-02-01T07:02:50;18.50;44.70
32753;DHT22;19121;52.428;10.816;2023-02-01T07:05:15;18.50;45.10
32753;DHT22;19121;52.428;10.816;2023-02-01T07:07:41;18.50;44.90
32753;DHT22;19121;52.428;10.816;2023-02-01T07:10:06;18.50;45.20
32753;DHT22;19121;52.428;10.816;2023-02-01T07:12:32;18.50;45.10
32753;DHT22;19121;52.428;10.816;2023-02-01T07:14:57;18.60;45.50
32753;DHT22;19121;52.428;10.816;2023-02-01T07:17:23;18.60;45.40
32753;DHT22;19121;52.428;10.816;2023-02-01T07:19:48;18.60;45.40
32753;DHT22;19121;52.428;10.816;2023-02-01T07:22:16;18.60;45.30
32753;DHT22;19121;52.428;10.816;2023-02-01T07:24:41;18.70;45.00
32753;DHT22;19121;52.428;10.816;2023-02-01T07:27:07;18.70;44.70
32753;DHT22;19121;52.428;10.816;2023-02-01T07:29:32;18.70;44.50
32753;DHT22;19121;52.428;10.816;2023-02-01T07:31:57;18.70;44.60
32753;DHT22;19121;52.428;10.816;2023-02-01T07:34:23;18.80;45.30
32753;DHT22;19121;52.428;10.816;2023-02-01T07:36:49;18.80;45.10
32753;DHT22;19121;52.428;10.816;2023-02-01T07:39:14;18.80;45.50
32753;DHT22;19121;52.428;10.816;2023-02-01T07:41:39;18.80;45.40
32753;DHT22;19121;52.428;10.816;2023-02-01T07:44:05;18.80;45.30
32753;DHT22;19121;52.428;10.816;2023-02-01T07:46:30;18.80;45.30
32753;DHT22;19121;52.428;10.816;2023-02-01T07:48:56;18.80;45.20
32753;DHT22;19121;52.428;10.816;2023-02-01T07:51:21;18.80;45.00
32753;DHT22;19121;52.428;10.816;2023-02-01T07:53:46;18.80;44.90
32753;DHT22;19121;52.428;10.816;2023-02-01T07:56:13;18.80;44.80
32753;DHT22;19121;52.428;10.816;2023-02-01T07:58:39;18.80;44.80
32753;DHT22;19121;52.428;10.816;2023-02-01T08:01:05;18.80;44.80
32753;DHT22;19121;52.428;10.816;2023-02-01T08:03:46;18.80;44.70
32753;DHT22;19121;52.428;10.816;2023-02-01T08:06:11;18.80;44.70
32753;DHT22;19121;52.428;10.816;2023-02-01T08:08:37;18.80;44.70
32753;DHT22;19121;52.428;10.816;2023-02-01T08:11:03;18.80;44.70
32753;DHT22;19121;52.428;10.816;2023-02-01T08:13:29;18.80;44.70
32753;DHT22;19121;52.428;10.816;2023-02-01T08:15:58;18.80;44.70
32753;DHT22;19121;52.428;10.816;2023-02-01T08:18:24;18.80;44.70
32753;DHT22;19121;52.428;10.816;2023-02-01T08:20:49;18.80;44.70
32753;DHT22;19121;52.428;10.816;2023-02-01T08:23:16;18.80;44.70
32753;DHT22;19121;52.428;10.816;2023-02-01T08:25:42;18.80;44.60
32753;DHT22;19121;52.428;10.816;2023-02-01T08:28:08;18.80;44.70
32753;DHT22;19121;52.428;10.816;2023-02-01T08:30:35;18.80;44.70
32753;DHT22;19121;52.428;10.816;2023-02-01T08:33:01;18.80;44.70
32753;DHT22;19121;52.428;10.816;2023-02-01T08:35:26;18.80;44.80
32753;DHT22;19121;52.428;10.816;2023-02-01T08:37:52;18.80;44.70
32753;DHT22;19121;52.428;10.816;2023-02-01T08:40:17;18.80;44.70
32753;DHT22;19121;52.428;10.816;2023-02-01T08:42:42;18.80;44.70
32753;DHT22;19121;52.428;10.816;2023-02-01T08:45:21;18.80;44.80
32753;DHT22;19121;52.428;10.816;2023-02-01T08:47:49;18.80;44.80
32753;DHT22;19121;52.428;10.816;2023-02-01T08:50:15;18.80;44.80
32753;DHT22;19121;52.428;10.816;2023-02-01T08:52:40;18.80;44.80
32753;DHT22;19121;52.428;10.816;2023-02-01T08:55:06;18.80;44.70
32753;DHT22;19121;52.428;10.816;2023-02-01T08:57:32;18.90;44.80
32753;DHT22;19121;52.428;10.816;2023-02-01T08:59:58;18.80;44.70
32753;DHT22;19121;52.428;10.816;2023-02-01T09:02:24;18.90;44.80
32753;DHT22;19121;52.428;10.816;2023-02-01T09:04:49;18.90;44.80
32753;DHT22;19121;52.428;10.816;2023-02-01T09:07:15;18.90;44.80
32753;DHT22;19121;52.428;10.816;2023-02-01T09:09:42;18.90;44.70
32753;DHT22;19121;52.428;10.816;2023-02-01T09:12:07;18.90;44.70
32753;DHT22;19121;52.428;10.816;2023-02-01T09:14:33;18.90;44.70
32753;DHT22;19121;52.428;10.816;2023-02-01T09:16:58;18.90;44.80
32753;DHT22;19121;52.428;10.816;2023-02-01T09:19:24;18.90;44.80
32753;DHT22;19121;52.428;10.816;2023-02-01T09:21:49;18.90;44.70
32753;DHT22;19121;52.428;10.816;2023-02-01T09:24:15;18.90;44.70
32753;DHT22;19121;52.428;10.816;2023-02-01T09:26:40;18.90;44.70
32753;DHT22;19121;52.428;10.816;2023-02-01T09:29:06;18.90;44.70
32753;DHT22;19121;52.428;10.816;2023-02-01T09:31:38;18.90;44.70
32753;DHT22;19121;52.428;10.816;2023-02-01T09:34:04;19.00;44.70
32753;DHT22;19121;52.428;10.816;2023-02-01T09:36:29;19.00;44.80
32753;DHT22;19121;52.428;10.816;2023-02-01T09:38:55;19.00;44.80
32753;DHT22;19121;52.428;10.816;2023-02-01T09:46:33;19.00;44.90
32753;DHT22;19121;52.428;10.816;2023-02-01T09:49:04;19.00;45.00
32753;DHT22;19121;52.428;10.816;2023-02-01T09:51:31;19.10;45.00
32753;DHT22;19121;52.428;10.816;2023-02-01T09:54:05;19.10;44.90
32753;DHT22;19121;52.428;10.816;2023-02-01T09:59:19;19.10;44.80
32753;DHT22;19121;52.428;10.816;2023-02-01T10:01:48;19.10;44.90
32753;DHT22;19121;52.428;10.816;2023-02-01T10:04:14;19.10;45.00
32753;DHT22;19121;52.428;10.816;2023-02-01T10:09:09;19.10;45.00
32753;DHT22;19121;52.428;10.816;2023-02-01T10:11:50;19.10;44.90
32753;DHT22;19121;52.428;10.816;2023-02-01T10:16:55;19.10;44.90
32753;DHT22;19121;52.428;10.816;2023-02-01T10:19:39;19.10;44.80
32753;DHT22;19121;52.428;10.816;2023-02-01T10:22:09;19.10;44.80
32753;DHT22;19121;52.428;10.816;2023-02-01T10:27:33;19.10;45.00
32753;DHT22;19121;52.428;10.816;2023-02-01T10:30:00;19.10;45.10
32753;DHT22;19121;52.428;10.816;2023-02-01T10:32:29;19.10;45.10
32753;DHT22;19121;52.428;10.816;2023-02-01T10:35:00;19.20;45.00
32753;DHT22;19121;52.428;10.816;2023-02-01T10:37:32;19.20;45.00
32753;DHT22;19121;52.428;10.816;2023-02-01T10:39:59;19.20;45.00
32753;DHT22;19121;52.428;10.816;2023-02-01T10:42:28;19.20;45.10
32753;DHT22;19121;52.428;10.816;2023-02-01T10:44:58;19.20;45.10
32753;DHT22;19121;52.428;10.816;2023-02-01T10:47:24;19.20;45.10
32753;DHT22;19121;52.428;10.816;2023-02-01T10:52:58;19.20;45.10
32753;DHT22;19121;52.428;10.816;2023-02-01T10:56:08;19.20;45.10
32753;DHT22;19121;52.428;10.816;2023-02-01T10:58:36;19.20;45.20
32753;DHT22;19121;52.428;10.816;2023-02-01T11:01:08;19.20;45.20
32753;DHT22;19121;52.428;10.816;2023-02-01T11:03:36;19.30;45.20
32753;DHT22;19121;52.428;10.816;2023-02-01T11:06:03;19.20;45.20
32753;DHT22;19121;52.428;10.816;2023-02-01T11:08:33;19.20;45.20
32753;DHT22;19121;52.428;10.816;2023-02-01T11:11:06;19.30;45.20
32753;DHT22;19121;52.428;10.816;2023-02-01T11:13:37;19.30;45.20
32753;DHT22;19121;52.428;10.816;2023-02-01T11:16:03;19.30;45.30
32753;DHT22;19121;52.428;10.816;2023-02-01T11:18:31;19.30;45.20
32753;DHT22;19121;52.428;10.816;2023-02-01T11:20:57;19.30;45.20
32753;DHT22;19121;52.428;10.816;2023-02-01T11:23:24;19.30;45.20
32753;DHT22;19121;52.428;10.816;2023-02-01T11:25:52;19.30;45.20
32753;DHT22;19121;52.428;10.816;2023-02-01T11:28:18;19.30;45.20
32753;DHT22;19121;52.428;10.816;2023-02-01T11:30:44;19.30;45.10
32753;DHT22;19121;52.428;10.816;2023-02-01T11:33:15;19.30;45.20
32753;DHT22;19121;52.428;10.816;2023-02-01T11:35:41;19.40;45.20
32753;DHT22;19121;52.428;10.816;2023-02-01T11:38:22;19.40;45.20
32753;DHT22;19121;52.428;10.816;2023-02-01T11:40:47;19.40;45.20
32753;DHT22;19121;52.428;10.816;2023-02-01T11:43:23;19.40;45.20
32753;DHT22;19121;52.428;10.816;2023-02-01T11:45:57;19.40;45.20
32753;DHT22;19121;52.428;10.816;2023-02-01T11:48:23;19.40;45.20
32753;DHT22;19121;52.428;10.816;2023-02-01T11:51:08;19.40;45.20
32753;DHT22;19121;52.428;10.816;2023-02-01T11:53:39;19.40;45.20
32753;DHT22;19121;52.428;10.816;2023-02-01T11:59:01;19.40;45.20
32753;DHT22;19121;52.428;10.816;2023-02-01T12:04:00;19.40;45.20
32753;DHT22;19121;52.428;10.816;2023-02-01T12:12:00;19.50;45.10
32753;DHT22;19121;52.428;10.816;2023-02-01T12:14:34;19.50;45.10
32753;DHT22;19121;52.428;10.816;2023-02-01T12:17:07;19.50;45.10
32753;DHT22;19121;52.428;10.816;2023-02-01T12:22:18;19.50;45.10
32753;DHT22;19121;52.428;10.816;2023-02-01T12:24:56;19.50;45.10
32753;DHT22;19121;52.428;10.816;2023-02-01T12:30:01;19.50;45.00
32753;DHT22;19121;52.428;10.816;2023-02-01T12:35:20;19.50;45.00
32753;DHT22;19121;52.428;10.816;2023-02-01T12:43:02;19.50;44.90
32753;DHT22;19121;52.428;10.816;2023-02-01T12:45:34;19.50;44.90
32753;DHT22;19121;52.428;10.816;2023-02-01T12:48:08;19.50;45.00
32753;DHT22;19121;52.428;10.816;2023-02-01T12:50:43;19.50;44.90
32753;DHT22;19121;52.428;10.816;2023-02-01T12:53:22;19.50;44.90
32753;DHT22;19121;52.428;10.816;2023-02-01T12:55:55;19.50;44.90
32753;DHT22;19121;52.428;10.816;2023-02-01T12:58:24;19.50;45.00
32753;DHT22;19121;52.428;10.816;2023-02-01T13:03:37;19.50;45.60
32753;DHT22;19121;52.428;10.816;2023-02-01T13:08:38;19.50;44.90
32753;DHT22;19121;52.428;10.816;2023-02-01T13:11:07;19.50;44.90
32753;DHT22;19121;52.428;10.816;2023-02-01T13:13:46;19.50;44.90
32753;DHT22;19121;52.428;10.816;2023-02-01T13:16:32;19.50;45.00
32753;DHT22;19121;52.428;10.816;2023-02-01T13:19:00;19.50;45.00
32753;DHT22;19121;52.428;10.816;2023-02-01T13:21:29;19.50;45.00
32753;DHT22;19121;52.428;10.816;2023-02-01T13:23:56;19.50;45.00
32753;DHT22;19121;52.428;10.816;2023-02-01T13:26:22;19.50;45.10
32753;DHT22;19121;52.428;10.816;2023-02-01T13:28:52;19.50;45.10
32753;DHT22;19121;52.428;10.816;2023-02-01T13:38:57;19.50;45.10
32753;DHT22;19121;52.428;10.816;2023-02-01T13:41:31;19.50;45.20
32753;DHT22;19121;52.428;10.816;2023-02-01T13:44:03;19.50;45.20
32753;DHT22;19121;52.428;10.816;2023-02-01T13:46:28;19.50;45.20
32753;DHT22;19121;52.428;10.816;2023-02-01T13:48:59;19.50;45.20
32753;DHT22;19121;52.428;10.816;2023-02-01T13:51:45;19.50;45.20
32753;DHT22;19121;52.428;10.816;2023-02-01T13:54:28;19.50;45.20
32753;DHT22;19121;52.428;10.816;2023-02-01T13:56:54;19.60;45.20
32753;DHT22;19121;52.428;10.816;2023-02-01T14:04:49;19.50;45.20
32753;DHT22;19121;52.428;10.816;2023-02-01T14:07:17;19.50;45.10
32753;DHT22;19121;52.428;10.816;2023-02-01T14:09:43;19.50;45.20
32753;DHT22;19121;52.428;10.816;2023-02-01T14:14:52;19.50;45.20
32753;DHT22;19121;52.428;10.816;2023-02-01T14:17:37;19.50;45.20
32753;DHT22;19121;52.428;10.816;2023-02-01T14:22:47;19.50;45.30
32753;DHT22;19121;52.428;10.816;2023-02-01T14:25:17;19.50;45.40
32753;DHT22;19121;52.428;10.816;2023-02-01T14:27:43;19.50;45.40
32753;DHT22;19121;52.428;10.816;2023-02-01T14:30:11;19.50;45.50
32753;DHT22;19121;52.428;10.816;2023-02-01T14:32:40;19.50;45.50
32753;DHT22;19121;52.428;10.816;2023-02-01T14:35:17;19.50;45.50
32753;DHT22;19121;52.428;10.816;2023-02-01T14:37:43;19.50;45.70
32753;DHT22;19121;52.428;10.816;2023-02-01T14:47:44;19.50;45.90
32753;DHT22;19121;52.428;10.816;2023-02-01T14:52:41;19.50;46.00
32753;DHT22;19121;52.428;10.816;2023-02-01T14:55:21;19.50;46.10
32753;DHT22;19121;52.428;10.816;2023-02-01T14:57:50;19.50;46.10
32753;DHT22;19121;52.428;10.816;2023-02-01T15:00:30;19.50;46.10
32753;DHT22;19121;52.428;10.816;2023-02-01T15:03:01;19.50;46.10
32753;DHT22;19121;52.428;10.816;2023-02-01T15:05:38;19.50;46.00
32753;DHT22;19121;52.428;10.816;2023-02-01T15:08:19;19.50;46.00
32753;DHT22;19121;52.428;10.816;2023-02-01T15:10:47;19.50;46.00
32753;DHT22;19121;52.428;10.816;2023-02-01T15:13:23;19.50;46.10
32753;DHT22;19121;52.428;10.816;2023-02-01T15:16:02;19.50;46.10
32753;DHT22;19121;52.428;10.816;2023-02-01T15:18:28;19.50;46.20
32753;DHT22;19121;52.428;10.816;2023-02-01T15:20:57;19.50;46.20
32753;DHT22;19121;52.428;10.816;2023-02-01T15:23:23;19.50;46.20
32753;DHT22;19121;52.428;10.816;2023-02-01T15:25:49;19.50;46.30
32753;DHT22;19121;52.428;10.816;2023-02-01T15:28:14;19.50;46.30
32753;DHT22;19121;52.428;10.816;2023-02-01T15:30:51;19.50;46.30
32753;DHT22;19121;52.428;10.816;2023-02-01T15:33:17;19.50;46.40
32753;DHT22;19121;52.428;10.816;2023-02-01T15:35:44;19.50;46.40
32753;DHT22;19121;52.428;10.816;2023-02-01T15:38:20;19.60;46.50
32753;DHT22;19121;52.428;10.816;2023-02-01T15:43:30;19.60;46.50
32753;DHT22;19121;52.428;10.816;2023-02-01T15:46:02;19.50;46.40
32753;DHT22;19121;52.428;10.816;2023-02-01T15:48:30;19.60;46.50
32753;DHT22;19121;52.428;10.816;2023-02-01T15:50:57;19.60;46.60
32753;DHT22;19121;52.428;10.816;2023-02-01T15:53:23;19.60;46.60
32753;DHT22;19121;52.428;10.816;2023-02-01T15:55:53;19.60;46.50
32753;DHT22;19121;52.428;10.816;2023-02-01T15:58:20;19.60;46.60
32753;DHT22;19121;52.428;10.816;2023-02-01T16:00:56;19.60;46.70
32753;DHT22;19121;52.428;10.816;2023-02-01T16:03:33;19.60;46.70
32753;DHT22;19121;52.428;10.816;2023-02-01T16:06:02;19.60;46.70
32753;DHT22;19121;52.428;10.816;2023-02-01T16:08:28;19.60;46.70
32753;DHT22;19121;52.428;10.816;2023-02-01T16:11:27;19.60;46.70
32753;DHT22;19121;52.428;10.816;2023-02-01T16:13:46;19.60;46.80
32753;DHT22;19121;52.428;10.816;2023-02-01T16:16:11;19.60;46.70
32753;DHT22;19121;52.428;10.816;2023-02-01T16:18:42;19.50;46.60
32753;DHT22;19121;52.428;10.816;2023-02-01T16:21:07;19.50;46.60
32753;DHT22;19121;52.428;10.816;2023-02-01T16:23:36;19.50;46.50
32753;DHT22;19121;52.428;10.816;2023-02-01T16:26:02;19.50;46.50
32753;DHT22;19121;52.428;10.816;2023-02-01T16:28:27;19.50;46.50
32753;DHT22;19121;52.428;10.816;2023-02-01T16:30:52;19.50;46.40
32753;DHT22;19121;52.428;10.816;2023-02-01T16:33:18;19.50;46.30
32753;DHT22;19121;52.428;10.816;2023-02-01T16:35:47;19.50;46.30
32753;DHT22;19121;52.428;10.816;2023-02-01T16:38:13;19.50;46.30
32753;DHT22;19121;52.428;10.816;2023-02-01T16:40:39;19.50;46.30
32753;DHT22;19121;52.428;10.816;2023-02-01T16:43:11;19.50;46.20
32753;DHT22;19121;52.428;10.816;2023-02-01T16:45:37;19.50;46.20
32753;DHT22;19121;52.428;10.816;2023-02-01T16:48:02;19.50;46.20
32753;DHT22;19121;52.428;10.816;2023-02-01T16:50:29;19.50;46.20
32753;DHT22;19121;52.428;10.816;2023-02-01T16:52:56;19.50;46.20
32753;DHT22;19121;52.428;10.816;2023-02-01T16:55:22;19.40;46.10
32753;DHT22;19121;52.428;10.816;2023-02-01T16:57:47;19.40;46.10
32753;DHT22;19121;52.428;10.816;2023-02-01T17:00:13;19.40;46.10
32753;DHT22;19121;52.428;10.816;2023-02-01T17:02:40;19.40;46.00